Mac Arthur, WV (25873)

10:37 AM EST on December 10, 2016 (GMT -0500)
Raleigh County Memorial | | Change Station

Elev 2513 ft 37.79 °N, 81.12 °W | Updated 46 minutes ago

Overcast
Overcast
19 °F
Feels Like 9 °F
N
8
Wind Variable Wind from West

Today
High -- | Low -- °F
--% Chance of Precip.
Yesterday
High -- | Low -- °F
Precip. -- in
Pressure 30.61 in
Visibility 10.0 miles
Clouds Mostly Cloudy 1800 ft
Overcast 10000 ft
Windchill 9 °F
Dew Point 10 °F
Humidity 68%
Rainfall 0.00 in
Snow Depth Not available.
7:29 AM 5:06 PM
Waxing Gibbous, 84% visible
METAR KBKW 101451Z AUTO 27007KT 10SM BKN018 OVC100 M07/M12 A3045 RMK AO2 SLP364 T10721122 51010
Pressure 30.61 in
Visibility 10.0 miles
Clouds Mostly Cloudy 1800 ft
Overcast 10000 ft
Windchill 9 °F
Dew Point 10 °F
Humidity 68%
Rainfall 0.00 in
Snow Depth Not available.
7:29 AM 5:06 PM
Waxing Gibbous, 84% visible
METAR KBKW 101451Z AUTO 27007KT 10SM BKN018 OVC100 M07/M12 A3045 RMK AO2 SLP364 T10721122 51010

10-Day Weather Forecast

Almanac

Astronomy

Dec. 10, 2016 Rise Set
Actual Time
Civil Twilight
Nautical Twilight
Astronomical Twilight
Moon
Length of Visible Light
Length of Day
Tomorrow will be .
, % of the Moon is Illuminated

Today's Extremes

State Highs State Lows

Community

WunderPhotos

Upload Photos

1,956,549 photos uploaded!

WunderBlog® & News

Nearby

Air Quality

  Air Quality AQ Index Pollutant
Not available.

Snow Depth

Station Depth Elevation

Earthquake Activity

City Distance Mag. Time & Date
Minimum magnitude displayed is 2.5.

Coastal Water Temperatures

Place Temperature

Stations

Nearby Weather Stations

Station Location Temp. Windchill Dew Point Humidity Wind Precip. Elev Updated Type
                   

Watches & Warnings

There are currently no watches in effect.